Time;durP1;ratioP1;P1;durP2;ratioP2;P2;SDS_P1;SDS_P2;PMS_P1;PMS_P2;Temp;Humidity;BMP_temperature;BMP_pressure;BME280_temperature;BME280_humidity;BME280_pressure;Samples;Min_cycle;Max_cycle;Signal;HPM_P1;HPM_P2
2023/10/30 00:00:26;;;;;;;5.90;2.70;;;8.90;46.30;;;;;;4981473;28;46207;-66
2023/10/30 00:02:51;;;;;;;4.20;2.40;;;8.80;45.50;;;;;;4982211;28;46502;-65
2023/10/30 00:05:17;;;;;;;4.70;2.70;;;8.80;46.50;;;;;;4975341;28;46069;-66
2023/10/30 00:07:43;;;;;;;5.50;2.70;;;8.70;46.60;;;;;;4983743;28;46413;-67
2023/10/30 00:10:09;;;;;;;8.23;2.43;;;8.70;46.60;;;;;;4978494;28;46925;-66
2023/10/30 00:12:34;;;;;;;4.57;2.57;;;8.60;45.90;;;;;;4980716;28;46630;-66
2023/10/30 00:15:03;;;;;;;5.17;3.10;;;8.60;46.80;;;;;;4978293;28;46435;-66
2023/10/30 00:17:30;;;;;;;7.00;2.77;;;8.60;46.80;;;;;;4983284;28;46540;-65
2023/10/30 00:19:56;;;;;;;4.20;2.57;;;8.60;47.00;;;;;;4983464;28;46756;-66
2023/10/30 00:22:22;;;;;;;6.07;3.27;;;10.30;46.80;;;;;;4982873;28;46345;-65
2023/10/30 00:24:48;;;;;;;4.77;2.70;;;;;;;;;;4982636;28;46695;-66
2023/10/30 00:27:16;;;;;;;7.33;3.60;;;8.50;46.00;;;;;;4981948;28;46663;-65
2023/10/30 00:29:42;;;;;;;6.40;3.20;;;8.50;47.00;;;;;;4975705;28;46528;-66
2023/10/30 00:32:08;;;;;;;5.03;2.87;;;8.50;46.70;;;;;;4986561;28;46463;-65
2023/10/30 00:34:34;;;;;;;5.50;3.07;;;8.50;45.80;;;;;;4982432;28;46108;-66
2023/10/30 00:37:00;;;;;;;7.57;3.50;;;8.50;46.80;;;;;;4982664;28;46401;-66
2023/10/30 00:39:27;;;;;;;5.23;3.00;;;8.50;46.80;;;;;;4984741;28;46309;-66
2023/10/30 00:41:53;;;;;;;5.90;2.80;;;8.50;46.90;;;;;;4983484;28;46354;-66
2023/10/30 00:44:19;;;;;;;4.57;2.63;;;8.50;46.10;;;;;;4986170;28;45803;-66
2023/10/30 00:46:44;;;;;;;4.67;3.00;;;8.40;47.20;;;;;;4984745;28;45983;-65
2023/10/30 00:49:10;;;;;;;4.10;2.30;;;8.40;47.40;;;;;;4985348;28;48022;-66
2023/10/30 00:51:35;;;;;;;6.90;2.57;;;8.30;47.60;;;;;;4980659;28;46476;-66
2023/10/30 00:54:01;;;;;;;4.70;2.73;;;8.20;46.70;;;;;;4984567;28;46676;-66
2023/10/30 00:56:27;;;;;;;3.87;2.47;;;8.20;47.10;;;;;;4982894;28;46498;-66
2023/10/30 00:58:52;;;;;;;5.53;2.77;;;8.20;47.90;;;;;;4981952;28;46526;-66
2023/10/30 01:01:18;;;;;;;4.90;3.17;;;8.20;48.10;;;;;;4996272;28;46462;-66
2023/10/30 01:03:44;;;;;;;4.60;2.50;;;8.10;47.70;;;;;;4986874;28;46440;-66
2023/10/30 01:06:09;;;;;;;5.00;2.73;;;8.10;48.70;;;;;;4985835;28;46834;-66
2023/10/30 01:08:35;;;;;;;6.90;2.30;;;8.00;48.70;;;;;;4980065;28;46397;-66
2023/10/30 01:11:01;;;;;;;4.43;2.80;;;7.90;48.50;;;;;;4985439;28;46451;-66
2023/10/30 01:13:27;;;;;;;5.97;2.53;;;7.80;48.60;;;;;;4999008;28;46499;-65
2023/10/30 01:15:56;;;;;;;4.77;3.00;;;7.80;48.60;;;;;;4978968;28;46610;-65
2023/10/30 01:18:22;;;;;;;4.40;2.63;;;7.90;49.20;;;;;;4983915;28;47423;-65
2023/10/30 01:20:48;;;;;;;4.60;2.53;;;;;;;;;;4986481;28;46444;-66
2023/10/30 01:23:17;;;;;;;9.17;2.73;;;7.80;48.50;;;;;;4984575;28;46386;-66
2023/10/30 01:25:44;;;;;;;3.80;2.30;;;7.70;49.90;;;;;;4980825;28;46680;-66
2023/10/30 01:28:09;;;;;;;8.70;3.10;;;7.90;49.80;;;;;;4979892;28;46673;-66
2023/10/30 01:30:35;;;;;;;6.30;2.83;;;;;;;;;;4982936;28;45865;-66
2023/10/30 01:33:01;;;;;;;11.27;2.53;;;;;;;;;;4985066;28;46530;-66
2023/10/30 01:35:28;;;;;;;4.83;2.73;;;;;;;;;;4983955;28;46705;-66
2023/10/30 01:37:54;;;;;;;4.87;2.57;;;;;;;;;;4982724;28;46027;-66
2023/10/30 01:40:20;;;;;;;7.20;2.60;;;;;;;;;;4981893;28;46433;-65
2023/10/30 01:42:46;;;;;;;7.30;2.87;;;;;;;;;;4982717;28;46542;-65
2023/10/30 01:45:12;;;;;;;3.50;2.00;;;;;;;;;;4983815;28;46853;-66
2023/10/30 01:47:38;;;;;;;7.60;2.30;;;7.30;49.30;;;;;;4982278;28;46802;-66
2023/10/30 01:50:07;;;;;;;5.87;2.63;;;7.30;50.40;;;;;;4984118;28;46787;-67
2023/10/30 01:52:33;;;;;;;3.50;2.00;;;7.20;49.80;;;;;;4974780;28;46504;-67
2023/10/30 01:54:59;;;;;;;7.27;2.17;;;7.10;50.00;;;;;;4974933;28;46605;-68
2023/10/30 01:57:28;;;;;;;3.57;2.10;;;7.10;50.20;;;;;;4982202;28;46744;-67
2023/10/30 01:59:55;;;;;;;3.53;2.30;;;7.00;49.80;;;;;;4980780;28;45752;-67
2023/10/30 02:02:22;;;;;;;4.03;2.00;;;;;;;;;;4982944;28;46413;-66
2023/10/30 02:04:48;;;;;;;2.90;2.10;;;6.90;50.50;;;;;;4965701;28;46034;-67
2023/10/30 02:07:14;;;;;;;4.43;2.40;;;6.70;50.60;;;;;;4975539;28;46385;-67
2023/10/30 02:09:41;;;;;;;3.73;2.37;;;6.80;53.10;;;;;;4969514;28;46634;-68
2023/10/30 02:12:06;;;;;;;3.17;2.07;;;6.80;50.60;;;;;;4968818;28;46380;-68
2023/10/30 02:14:33;;;;;;;4.73;1.93;;;6.80;50.30;;;;;;4975998;28;46330;-68
2023/10/30 02:16:59;;;;;;;3.10;2.10;;;;;;;;;;4982561;28;47355;-66
2023/10/30 02:19:26;;;;;;;4.30;2.60;;;6.90;50.00;;;;;;4976861;28;46433;-67
2023/10/30 02:21:54;;;;;;;4.40;2.57;;;6.80;49.50;;;;;;4973980;28;46441;-66
2023/10/30 02:24:21;;;;;;;6.03;2.87;;;6.90;49.70;;;;;;4983394;28;46378;-68
2023/10/30 02:26:47;;;;;;;5.80;2.73;;;6.80;49.70;;;;;;4967030;28;46831;-68
2023/10/30 02:29:13;;;;;;;4.50;2.87;;;6.80;50.00;;;;;;4970140;28;46373;-68
2023/10/30 02:31:39;;;;;;;4.90;2.50;;;6.90;50.70;;;;;;4978914;28;46133;-68
2023/10/30 02:34:05;;;;;;;5.90;2.30;;;;;;;;;;4983098;28;46839;-68
2023/10/30 02:36:30;;;;;;;6.30;3.20;;;6.80;49.60;;;;;;4983546;28;46370;-68
2023/10/30 02:38:56;;;;;;;5.60;2.90;;;6.80;50.90;;;;;;4974585;28;46125;-67
2023/10/30 02:41:22;;;;;;;3.73;2.30;;;6.90;51.20;;;;;;4979641;28;45845;-67
2023/10/30 02:43:48;;;;;;;4.77;2.83;;;;;;;;;;4986676;28;46559;-67
2023/10/30 02:46:13;;;;;;;4.13;2.67;;;7.00;49.90;;;;;;4982828;28;46389;-67
2023/10/30 02:48:39;;;;;;;8.53;2.77;;;7.00;50.50;;;;;;4980877;28;45755;-66
2023/10/30 02:51:05;;;;;;;4.30;2.40;;;7.00;49.60;;;;;;4975229;28;45826;-66
2023/10/30 02:53:31;;;;;;;6.00;2.50;;;7.00;50.30;;;;;;4974075;28;46403;-67
2023/10/30 02:55:57;;;;;;;6.57;3.00;;;;;;;;;;4983673;28;47226;-68
2023/10/30 02:58:23;;;;;;;8.27;2.40;;;;;;;;;;4983211;28;46410;-66
2023/10/30 03:00:53;;;;;;;6.43;2.33;;;7.00;49.00;;;;;;4974008;28;46765;-66
2023/10/30 03:03:19;;;;;;;5.67;2.83;;;7.00;49.20;;;;;;4967863;28;46755;-67
2023/10/30 03:05:45;;;;;;;4.10;2.20;;;7.00;50.10;;;;;;4980019;28;46066;-67
2023/10/30 03:08:11;;;;;;;3.83;2.57;;;6.90;49.80;;;;;;4984654;28;46398;-67
2023/10/30 03:10:36;;;;;;;3.00;1.73;;;6.80;50.00;;;;;;4981071;28;46503;-67
2023/10/30 03:13:02;;;;;;;3.40;2.30;;;6.80;49.80;;;;;;4998938;28;46286;-67
2023/10/30 03:15:27;;;;;;;3.83;2.10;;;6.80;50.70;;;;;;4982850;28;46356;-67
2023/10/30 03:17:53;;;;;;;6.07;2.00;;;6.80;49.90;;;;;;4979676;28;45888;-65
2023/10/30 03:20:18;;;;;;;4.67;2.20;;;6.90;49.60;;;;;;4982603;28;46389;-66
2023/10/30 03:22:44;;;;;;;3.60;2.40;;;6.90;48.90;;;;;;4979247;28;45872;-64
2023/10/30 03:25:10;;;;;;;7.33;2.50;;;;;;;;;;4983138;28;46577;-66
2023/10/30 03:27:36;;;;;;;5.60;2.53;;;6.90;48.90;;;;;;4982486;28;46533;-66
2023/10/30 03:30:02;;;;;;;6.60;2.10;;;7.00;49.00;;;;;;4979706;28;46816;-66
2023/10/30 03:32:29;;;;;;;4.40;2.73;;;7.00;49.00;;;;;;4987225;28;46945;-65
2023/10/30 03:34:54;;;;;;;15.57;3.07;;;7.10;49.10;;;;;;4982093;28;47047;-66
2023/10/30 03:37:20;;;;;;;4.63;2.73;;;;;;;;;;4980210;28;46411;-64
2023/10/30 03:39:46;;;;;;;4.90;2.97;;;7.10;49.10;;;;;;4980454;28;46523;-66
2023/10/30 03:42:12;;;;;;;4.43;2.60;;;;;;;;;;4984084;28;46482;-66
2023/10/30 03:44:38;;;;;;;5.00;2.50;;;7.10;53.50;;;;;;4985464;28;46612;-65
2023/10/30 03:47:04;;;;;;;5.90;2.53;;;7.00;49.00;;;;;;4984410;28;46682;-65
2023/10/30 03:49:30;;;;;;;3.20;1.80;;;;;;;;;;4984700;28;46830;-64
2023/10/30 03:51:56;;;;;;;4.00;2.33;;;6.80;50.20;;;;;;4984465;28;46481;-65
2023/10/30 03:54:22;;;;;;;5.00;2.00;;;;;;;;;;4981696;28;46384;-65
2023/10/30 03:56:48;;;;;;;9.13;2.73;;;6.70;50.50;;;;;;4977134;28;46540;-65
2023/10/30 03:59:16;;;;;;;3.10;2.00;;;6.70;51.30;;;;;;4984446;28;45815;-65
2023/10/30 04:01:42;;;;;;;6.00;2.40;;;6.80;50.00;;;;;;4982316;28;46446;-65
2023/10/30 04:04:08;;;;;;;3.70;2.40;;;6.80;49.50;;;;;;4982578;28;46641;-65
2023/10/30 04:06:37;;;;;;;4.30;2.70;;;6.80;49.10;;;;;;4982086;28;46354;-65
2023/10/30 04:09:04;;;;;;;5.90;2.63;;;6.80;49.60;;;;;;4976082;28;46547;-65
2023/10/30 04:11:30;;;;;;;3.10;2.10;;;;;;;;;;4981001;28;46266;-64
2023/10/30 04:13:56;;;;;;;5.00;2.17;;;;;;;;;;4982967;28;46507;-65
2023/10/30 04:16:22;;;;;;;2.67;2.00;;;;;;;;;;4981600;28;46437;-65
2023/10/30 04:18:48;;;;;;;3.53;2.27;;;;;;;;;;4982017;28;46700;-65
2023/10/30 04:21:14;;;;;;;5.10;2.70;;;6.40;50.90;;;;;;4982206;28;46464;-67
2023/10/30 04:23:42;;;;;;;4.27;2.73;;;6.30;51.80;;;;;;4980073;28;47263;-65
2023/10/30 04:26:08;;;;;;;4.77;2.70;;;6.30;52.60;;;;;;4981737;28;46531;-65
2023/10/30 04:28:34;;;;;;;4.13;2.67;;;6.40;52.10;;;;;;4979460;28;46413;-66
2023/10/30 04:30:59;;;;;;;5.70;2.80;;;6.40;54.30;;;;;;4973479;28;46379;-67
2023/10/30 04:33:25;;;;;;;5.93;2.70;;;6.40;51.70;;;;;;4996711;28;46439;-67
2023/10/30 04:35:51;;;;;;;5.10;3.20;;;6.40;52.70;;;;;;4982259;28;46376;-67
2023/10/30 04:38:16;;;;;;;5.67;3.90;;;6.50;52.60;;;;;;4977631;28;46403;-67
2023/10/30 04:40:42;;;;;;;7.93;4.53;;;6.50;52.60;;;;;;4991766;28;46361;-68
2023/10/30 04:43:08;;;;;;;8.23;5.60;;;;;;;;;;4981464;28;46321;-67
2023/10/30 04:45:33;;;;;;;8.17;5.10;;;6.50;51.20;;;;;;4973787;28;46267;-67
2023/10/30 04:47:59;;;;;;;10.10;5.17;;;6.60;52.40;;;;;;4973293;28;46379;-68
2023/10/30 04:50:24;;;;;;;13.50;6.37;;;6.60;52.20;;;;;;4983525;28;45833;-68
2023/10/30 04:52:50;;;;;;;14.00;6.83;;;6.80;51.60;;;;;;4987023;28;47000;-66
2023/10/30 04:55:16;;;;;;;12.50;6.70;;;6.80;52.30;;;;;;4981765;28;46438;-67
2023/10/30 04:57:41;;;;;;;11.47;7.30;;;6.90;52.50;;;;;;4972292;28;46405;-66
2023/10/30 05:00:08;;;;;;;11.90;6.00;;;6.20;52.00;;;;;;4978102;28;46932;-65
2023/10/30 05:02:33;;;;;;;9.70;6.30;;;6.90;52.40;;;;;;4962336;28;46437;-67
2023/10/30 05:04:59;;;;;;;16.90;7.80;;;7.10;53.30;;;;;;4975620;28;46362;-67
2023/10/30 05:07:24;;;;;;;14.87;7.63;;;7.10;53.40;;;;;;4976016;28;46419;-67
2023/10/30 05:09:50;;;;;;;13.67;7.37;;;7.20;53.70;;;;;;4984288;28;46627;-67
2023/10/30 05:12:15;;;;;;;13.43;8.27;;;7.20;54.10;;;;;;4972574;28;46286;-66
2023/10/30 05:14:41;;;;;;;13.83;8.30;;;7.30;53.50;;;;;;4972552;28;46506;-67
2023/10/30 05:17:07;;;;;;;14.13;7.97;;;7.40;54.20;;;;;;4979883;28;45927;-66
2023/10/30 05:19:33;;;;;;;12.10;8.13;;;7.40;54.90;;;;;;4975787;28;46603;-66
2023/10/30 05:21:59;;;;;;;17.53;8.03;;;7.40;55.10;;;;;;4973743;28;47378;-66
2023/10/30 05:24:25;;;;;;;13.57;8.53;;;7.40;54.40;;;;;;4977345;28;46299;-67
2023/10/30 05:26:52;;;;;;;11.20;6.93;;;7.40;55.50;;;;;;4991855;28;46373;-66
2023/10/30 05:29:18;;;;;;;9.70;5.53;;;7.40;56.10;;;;;;4983860;28;46420;-67
2023/10/30 05:31:44;;;;;;;11.77;5.67;;;7.30;56.30;;;;;;4983425;28;46929;-68
2023/10/30 05:34:10;;;;;;;7.17;4.43;;;7.10;55.90;;;;;;4964276;28;45855;-67
2023/10/30 05:36:35;;;;;;;8.00;4.23;;;7.00;57.30;;;;;;4970370;28;45843;-65
2023/10/30 05:39:01;;;;;;;6.90;3.97;;;6.80;57.90;;;;;;4974030;28;46403;-67
2023/10/30 05:41:27;;;;;;;7.30;4.50;;;6.70;58.60;;;;;;4970035;28;47153;-68
2023/10/30 05:43:53;;;;;;;5.40;3.67;;;6.50;58.30;;;;;;4994042;28;46384;-68
2023/10/30 05:46:18;;;;;;;9.13;4.20;;;6.40;58.30;;;;;;4983444;28;46380;-67
2023/10/30 05:48:44;;;;;;;5.10;3.27;;;6.40;58.60;;;;;;4986585;28;46508;-67
2023/10/30 05:51:10;;;;;;;4.90;3.47;;;6.30;58.80;;;;;;4983712;28;47396;-67
2023/10/30 05:53:36;;;;;;;7.03;4.00;;;6.30;58.60;;;;;;4983436;28;46426;-67
2023/10/30 05:56:02;;;;;;;6.40;4.40;;;6.20;59.70;;;;;;4997248;28;46441;-67
2023/10/30 05:58:27;;;;;;;8.07;4.40;;;6.20;59.00;;;;;;4965975;28;46615;-67
2023/10/30 06:00:53;;;;;;;9.63;4.70;;;6.20;59.70;;;;;;4974907;28;46451;-66
2023/10/30 06:03:19;;;;;;;7.70;4.87;;;6.30;58.60;;;;;;4963855;28;46700;-67
2023/10/30 06:05:44;;;;;;;6.03;4.33;;;6.30;59.50;;;;;;4981848;28;46357;-68
2023/10/30 06:08:10;;;;;;;8.43;5.20;;;6.30;59.30;;;;;;5015110;28;46360;-67
2023/10/30 06:10:38;;;;;;;9.50;4.93;;;6.30;58.30;;;;;;4990555;28;46626;-67
2023/10/30 06:13:06;;;;;;;6.80;4.90;;;6.30;58.00;;;;;;4967409;28;46399;-67
2023/10/30 06:15:32;;;;;;;7.03;5.10;;;6.30;58.20;;;;;;4976304;28;46461;-68
2023/10/30 06:17:58;;;;;;;9.13;5.20;;;6.30;58.90;;;;;;4973272;28;46503;-68
2023/10/30 06:20:25;;;;;;;9.67;5.10;;;6.30;58.80;;;;;;4990542;28;46561;-66
2023/10/30 06:22:51;;;;;;;7.10;4.87;;;6.40;57.70;;;;;;4979077;28;46404;-67
2023/10/30 06:25:16;;;;;;;8.37;5.10;;;6.40;58.80;;;;;;4982542;28;46308;-67
2023/10/30 06:27:42;;;;;;;11.67;5.13;;;6.40;58.70;;;;;;4976184;28;46592;-67
2023/10/30 06:30:09;;;;;;;8.93;6.40;;;6.40;58.50;;;;;;4972819;28;47110;-67
2023/10/30 06:32:35;;;;;;;12.20;4.50;;;6.50;57.70;;;;;;4971535;28;46757;-65
2023/10/30 06:35:02;;;;;;;10.93;5.60;;;6.50;58.50;;;;;;4991846;28;46393;-67
2023/10/30 06:37:28;;;;;;;6.37;4.33;;;6.70;57.50;;;;;;4978619;28;46555;-68
2023/10/30 06:39:53;;;;;;;8.50;4.30;;;6.70;58.30;;;;;;4990617;28;46440;-67
2023/10/30 06:42:19;;;;;;;7.40;4.30;;;6.70;58.10;;;;;;4979797;28;46258;-66
2023/10/30 06:44:45;;;;;;;7.27;4.73;;;6.70;56.90;;;;;;4977153;28;46482;-66
2023/10/30 06:47:10;;;;;;;5.67;3.63;;;6.80;57.80;;;;;;4979093;28;46409;-67
2023/10/30 06:49:36;;;;;;;7.47;3.70;;;6.90;57.70;;;;;;4982020;28;46462;-69
2023/10/30 06:52:01;;;;;;;5.47;3.27;;;6.90;57.80;;;;;;4974781;28;46502;-65
2023/10/30 06:54:27;;;;;;;8.90;3.83;;;6.90;57.00;;;;;;4975434;28;45856;-65
2023/10/30 06:56:53;;;;;;;5.73;4.00;;;;;;;;;;4981884;28;46760;-65
2023/10/30 06:59:20;;;;;;;17.23;6.33;;;;;;;;;;4994113;28;47060;-66
2023/10/30 07:01:47;;;;;;;9.40;6.80;;;7.40;56.70;;;;;;4971788;28;46401;-65
2023/10/30 07:04:14;;;;;;;17.30;8.80;;;7.60;56.60;;;;;;4978343;28;46341;-65
2023/10/30 07:06:41;;;;;;;11.57;8.30;;;7.80;56.60;;;;;;4981056;28;46390;-65
2023/10/30 07:09:08;;;;;;;16.60;8.60;;;8.00;56.90;;;;;;4977834;28;47194;-64
2023/10/30 07:11:34;;;;;;;19.27;9.40;;;8.20;56.50;;;;;;4975086;28;46338;-66
2023/10/30 07:14:02;;;;;;;13.77;10.53;;;8.40;56.60;;;;;;4979617;28;46714;-64
2023/10/30 07:16:29;;;;;;;16.03;9.97;;;8.50;56.60;;;;;;4966587;28;46569;-63
2023/10/30 07:19:01;;;;;;;16.90;9.27;;;8.50;57.60;;;;;;4976814;28;46574;-64
2023/10/30 07:21:28;;;;;;;13.47;9.07;;;8.70;57.50;;;;;;4989216;28;46445;-64
2023/10/30 07:23:54;;;;;;;12.80;7.73;;;9.00;57.30;;;;;;4980335;28;46651;-63
2023/10/30 07:26:21;;;;;;;10.33;7.20;;;9.00;58.20;;;;;;4976962;28;46534;-66
2023/10/30 07:28:51;;;;;;;17.80;7.90;;;9.20;57.70;;;;;;4972739;28;46882;-68
2023/10/30 07:31:18;;;;;;;11.90;8.13;;;9.20;58.30;;;;;;4973700;28;45842;-66
2023/10/30 07:33:44;;;;;;;10.17;6.83;;;;;;;;;;4980336;28;46447;-66
2023/10/30 07:36:10;;;;;;;14.63;6.90;;;9.40;57.60;;;;;;4981003;28;46791;-66
2023/10/30 07:38:36;;;;;;;13.70;8.07;;;9.60;58.00;;;;;;4982260;28;46639;-66
2023/10/30 07:41:03;;;;;;;10.50;7.20;;;9.60;58.90;;;;;;4982011;28;46438;-66
2023/10/30 07:43:29;;;;;;;11.10;6.50;;;9.90;57.90;;;;;;4974236;28;46343;-66
2023/10/30 07:45:54;;;;;;;7.50;5.90;;;9.90;58.80;;;;;;4979409;28;46877;-66
2023/10/30 07:48:23;;;;;;;8.07;5.93;;;10.00;57.60;;;;;;4977041;28;46768;-66
2023/10/30 07:50:50;;;;;;;10.77;6.20;;;10.20;57.20;;;;;;4982881;28;45928;-66
2023/10/30 07:53:16;;;;;;;8.60;6.03;;;10.30;57.00;;;;;;4974731;28;46762;-66
2023/10/30 07:55:41;;;;;;;9.17;6.20;;;10.40;58.10;;;;;;4977216;28;46476;-66
2023/10/30 07:58:07;;;;;;;8.73;5.30;;;10.50;57.80;;;;;;4977260;28;47100;-66
2023/10/30 08:00:33;;;;;;;9.33;6.27;;;10.70;58.00;;;;;;4978363;28;46341;-67
2023/10/30 08:03:00;;;;;;;12.60;5.40;;;10.80;56.90;;;;;;4975166;28;46756;-67
2023/10/30 08:05:26;;;;;;;6.60;4.60;;;11.00;57.60;;;;;;4982406;28;46686;-65
2023/10/30 08:07:52;;;;;;;9.57;4.60;;;11.00;57.50;;;;;;4981750;28;47375;-66
2023/10/30 08:10:18;;;;;;;10.00;4.77;;;11.00;58.30;;;;;;4975905;28;46678;-65
2023/10/30 08:12:43;;;;;;;7.20;4.70;;;11.10;57.90;;;;;;4982949;28;46455;-66
2023/10/30 08:15:10;;;;;;;7.37;3.87;;;11.20;57.80;;;;;;4972521;28;45916;-66
2023/10/30 08:17:36;;;;;;;11.10;4.20;;;11.30;57.90;;;;;;4977938;28;47123;-66
2023/10/30 08:20:03;;;;;;;7.40;4.07;;;11.30;57.90;;;;;;4980995;28;46514;-66
2023/10/30 08:22:29;;;;;;;6.57;3.90;;;11.40;58.10;;;;;;4981885;28;46630;-66
2023/10/30 08:24:55;;;;;;;7.10;3.93;;;11.40;58.80;;;;;;4977702;28;46394;-68
2023/10/30 08:27:21;;;;;;;7.03;4.00;;;11.50;58.90;;;;;;4972267;28;47274;-66
2023/10/30 08:29:47;;;;;;;5.83;4.00;;;11.60;58.80;;;;;;4975515;28;46358;-66
2023/10/30 08:32:13;;;;;;;4.40;3.33;;;11.70;58.40;;;;;;4980430;28;46488;-65
2023/10/30 08:34:39;;;;;;;5.00;3.63;;;11.90;57.20;;;;;;4971210;28;46715;-66
2023/10/30 08:37:04;;;;;;;6.07;3.63;;;12.00;57.80;;;;;;4975642;28;46428;-65
2023/10/30 08:39:30;;;;;;;7.17;4.30;;;12.10;57.60;;;;;;4981420;28;46771;-66
2023/10/30 08:41:55;;;;;;;5.70;3.70;;;12.10;57.30;;;;;;4983003;28;46338;-65
2023/10/30 08:44:21;;;;;;;6.83;3.93;;;12.20;56.20;;;;;;4979974;28;46733;-64
2023/10/30 08:46:47;;;;;;;10.60;4.10;;;12.40;56.50;;;;;;4986465;28;46448;-66
2023/10/30 08:49:12;;;;;;;9.53;4.10;;;12.40;57.20;;;;;;4987380;28;46420;-66
2023/10/30 08:51:42;;;;;;;6.90;3.40;;;12.50;56.80;;;;;;4983258;28;46431;-66
2023/10/30 08:54:08;;;;;;;5.20;2.83;;;12.70;55.10;;;;;;4981108;28;45867;-68
2023/10/30 08:56:34;;;;;;;5.10;3.00;;;12.80;56.00;;;;;;4978452;28;46492;-66
2023/10/30 08:58:59;;;;;;;5.80;3.80;;;12.80;55.30;;;;;;4973816;28;46385;-66
2023/10/30 09:01:26;;;;;;;4.40;2.93;;;13.00;54.10;;;;;;4978199;28;46670;-65
2023/10/30 09:03:52;;;;;;;6.60;3.40;;;13.00;53.50;;;;;;4976803;28;46759;-65
2023/10/30 09:06:18;;;;;;;6.87;3.40;;;13.00;54.40;;;;;;4977498;28;46599;-68
2023/10/30 09:08:44;;;;;;;9.93;4.27;;;13.10;54.50;;;;;;4979569;28;46469;-67
2023/10/30 09:11:10;;;;;;;8.53;3.60;;;13.20;54.20;;;;;;4978059;28;46532;-66
2023/10/30 09:13:36;;;;;;;10.83;4.37;;;13.30;52.20;;;;;;4981884;28;46697;-67
2023/10/30 09:16:02;;;;;;;6.57;4.60;;;13.30;52.90;;;;;;4978493;28;46829;-66
2023/10/30 09:18:27;;;;;;;6.30;3.97;;;13.30;52.20;;;;;;4980204;28;46368;-66
2023/10/30 09:20:53;;;;;;;8.50;4.30;;;13.40;52.10;;;;;;4983168;28;46573;-66
2023/10/30 09:23:18;;;;;;;8.27;4.20;;;13.40;50.50;;;;;;4985374;28;46424;-67
2023/10/30 09:25:44;;;;;;;7.43;4.57;;;13.50;50.90;;;;;;4977304;28;46748;-66
2023/10/30 09:28:10;;;;;;;7.33;3.97;;;13.50;51.40;;;;;;4983406;28;46813;-66
2023/10/30 09:30:36;;;;;;;10.53;5.00;;;13.70;49.70;;;;;;4983636;28;46683;-67
2023/10/30 09:33:02;;;;;;;6.97;4.87;;;13.90;48.60;;;;;;4980863;28;46488;-66
2023/10/30 09:35:30;;;;;;;9.40;4.70;;;13.90;49.40;;;;;;4977372;28;46409;-66
2023/10/30 09:37:56;;;;;;;7.63;5.50;;;14.00;48.90;;;;;;4983479;28;46447;-66
2023/10/30 09:40:26;;;;;;;9.93;5.00;;;14.00;47.90;;;;;;4983810;28;46591;-66
2023/10/30 09:42:53;;;;;;;7.10;4.30;;;14.10;46.60;;;;;;4982714;28;46325;-65
2023/10/30 09:45:22;;;;;;;7.50;4.30;;;14.10;47.70;;;;;;4981230;28;47335;-65
2023/10/30 09:47:52;;;;;;;8.30;4.63;;;14.20;47.10;;;;;;4983763;28;46484;-66
2023/10/30 09:50:18;;;;;;;7.70;4.70;;;14.20;46.40;;;;;;4981342;28;46416;-66
2023/10/30 09:52:48;;;;;;;13.67;5.10;;;14.40;45.10;;;;;;4977624;28;46453;-65
2023/10/30 09:55:19;;;;;;;8.80;4.47;;;14.40;45.80;;;;;;4976726;28;46648;-66
2023/10/30 09:57:51;;;;;;;8.63;4.10;;;14.40;45.50;;;;;;4976397;28;46726;-66
2023/10/30 10:00:17;;;;;;;9.23;4.70;;;;;;;;;;4986801;28;46421;-65
2023/10/30 10:02:43;;;;;;;9.17;4.77;;;;;;;;;;4984363;28;46003;-65
2023/10/30 10:05:10;;;;;;;5.40;3.83;;;14.70;42.20;;;;;;4979522;28;46351;-65
2023/10/30 10:07:36;;;;;;;9.40;4.70;;;14.70;41.70;;;;;;4977127;28;46572;-63
2023/10/30 10:10:03;;;;;;;14.43;4.57;;;14.80;41.80;;;;;;4984454;28;46521;-65
2023/10/30 10:12:30;;;;;;;8.07;4.37;;;14.70;41.70;;;;;;4963159;28;46521;-65
2023/10/30 10:14:57;;;;;;;10.33;4.80;;;;;;;;;;4997842;28;48352;-66
2023/10/30 10:17:23;;;;;;;8.77;4.77;;;14.80;41.00;;;;;;4972352;28;46457;-66
2023/10/30 10:19:49;;;;;;;6.27;4.50;;;14.90;41.10;;;;;;4980131;28;46405;-66
2023/10/30 10:22:27;;;;;;;11.97;5.20;;;15.00;40.50;;;;;;4983552;28;46572;-65
2023/10/30 10:24:54;;;;;;;10.03;4.43;;;15.10;40.20;;;;;;4987110;28;47307;-66
2023/10/30 10:27:20;;;;;;;6.50;4.33;;;15.20;39.90;;;;;;4985171;28;46428;-66
2023/10/30 10:29:53;;;;;;;10.50;5.30;;;15.20;39.60;;;;;;4980822;28;46498;-66
2023/10/30 10:32:19;;;;;;;7.20;4.73;;;15.20;40.40;;;;;;4977691;28;46480;-66
2023/10/30 10:34:50;;;;;;;8.00;4.90;;;15.20;39.70;;;;;;4990333;22;46673;-68
2023/10/30 10:37:18;;;;;;;9.50;5.40;;;15.20;40.40;;;;;;4982236;28;46463;-67
2023/10/30 10:39:50;;;;;;;10.00;4.33;;;15.30;40.10;;;;;;4968170;28;46352;-68
2023/10/30 10:42:25;;;;;;;9.73;4.87;;;15.30;39.60;;;;;;4981484;28;46849;-68
2023/10/30 10:44:52;;;;;;;7.80;4.63;;;15.20;38.40;;;;;;4968045;28;46422;-67
2023/10/30 10:47:19;;;;;;;14.03;4.77;;;15.20;40.00;;;;;;4999869;28;46441;-66
2023/10/30 10:49:45;;;;;;;7.13;4.30;;;15.20;40.00;;;;;;5008917;28;46481;-66
2023/10/30 10:52:14;;;;;;;9.50;4.33;;;15.30;39.10;;;;;;4999656;28;46492;-69
2023/10/30 10:54:45;;;;;;;8.50;5.07;;;15.40;38.70;;;;;;4998563;28;46421;-69
2023/10/30 10:57:16;;;;;;;12.40;5.07;;;15.50;38.40;;;;;;5004544;28;46732;-68
2023/10/30 10:59:44;;;;;;;9.80;5.70;;;15.40;38.70;;;;;;4991927;28;46243;-69
2023/10/30 11:02:20;;;;;;;6.60;4.60;;;15.40;39.50;;;;;;5005200;28;46726;-68
2023/10/30 11:04:50;;;;;;;6.97;4.77;;;15.40;38.70;;;;;;4989481;28;46807;-66
2023/10/30 11:07:24;;;;;;;11.67;4.47;;;15.50;39.10;;;;;;4987482;28;46633;-66
2023/10/30 11:09:54;;;;;;;9.93;4.67;;;15.40;39.90;;;;;;4988837;28;46536;-66
2023/10/30 11:12:47;;;;;;;8.93;5.47;;;15.60;38.30;;;;;;4985108;28;46712;-66
2023/10/30 11:15:30;;;;;;;8.73;4.40;;;15.60;39.50;;;;;;4995809;28;46945;-64
2023/10/30 11:18:21;;;;;;;7.00;4.77;;;15.60;37.80;;;;;;4990085;28;46700;-66
2023/10/30 11:20:48;;;;;;;12.70;4.60;;;15.40;38.10;;;;;;4985440;28;46475;-67
2023/10/30 11:23:46;;;;;;;8.57;4.70;;;15.40;38.50;;;;;;4982498;28;46889;-64
2023/10/30 11:26:38;;;;;;;7.37;4.90;;;15.40;38.60;;;;;;4998380;28;47116;-67
2023/10/30 11:29:17;;;;;;;8.70;4.53;;;15.40;38.70;;;;;;4990867;28;46451;-66
2023/10/30 11:31:57;;;;;;;7.33;4.23;;;15.30;39.20;;;;;;4987199;28;46617;-67
2023/10/30 11:34:28;;;;;;;10.30;4.27;;;15.30;39.10;;;;;;4989727;28;46524;-65
2023/10/30 11:37:11;;;;;;;11.30;5.23;;;15.30;39.30;;;;;;4990147;28;46941;-66
2023/10/30 11:39:41;;;;;;;7.17;3.93;;;15.20;39.40;;;;;;4992478;28;46389;-66
2023/10/30 11:42:22;;;;;;;9.53;4.00;;;15.20;40.20;;;;;;4991262;28;46367;-66
2023/10/30 11:45:08;;;;;;;13.80;4.93;;;15.40;39.40;;;;;;4987804;28;46464;-66
2023/10/30 11:47:34;;;;;;;9.17;4.73;;;15.30;39.90;;;;;;4989756;28;48255;-66
2023/10/30 11:50:00;;;;;;;8.67;4.63;;;15.30;40.10;;;;;;4988619;28;46483;-66
2023/10/30 11:52:25;;;;;;;6.90;4.57;;;15.30;40.50;;;;;;4990341;28;45984;-67
2023/10/30 11:54:51;;;;;;;14.93;4.47;;;15.20;40.00;;;;;;4989841;28;46734;-66
2023/10/30 11:57:17;;;;;;;8.80;4.20;;;15.20;40.00;;;;;;4985025;28;47230;-66
2023/10/30 11:59:43;;;;;;;7.33;4.67;;;15.20;40.80;;;;;;4996364;28;46393;-66
2023/10/30 12:02:09;;;;;;;8.20;4.70;;;;;;;;;;4994945;28;46469;-65
2023/10/30 12:04:34;;;;;;;8.50;5.10;;;15.10;40.00;;;;;;4992349;28;46332;-66
2023/10/30 12:07:00;;;;;;;10.80;5.10;;;15.10;40.70;;;;;;4996974;28;46409;-66
2023/10/30 12:09:26;;;;;;;15.43;5.70;;;15.10;41.40;;;;;;4987055;28;46684;-66
2023/10/30 12:11:53;;;;;;;21.93;11.17;;;15.00;40.90;;;;;;4986915;28;46692;-66
2023/10/30 12:14:19;;;;;;;50.17;22.37;;;14.80;41.10;;;;;;4996293;28;46999;-67
2023/10/30 12:16:47;;;;;;;47.13;24.07;;;15.00;42.00;;;;;;4991570;28;46635;-67
2023/10/30 12:19:13;;;;;;;24.23;14.23;;;14.90;41.60;;;;;;4973562;28;46474;-66
2023/10/30 12:21:39;;;;;;;11.03;6.50;;;15.00;41.10;;;;;;4995149;28;46338;-66
2023/10/30 12:24:05;;;;;;;15.17;5.93;;;;;;;;;;4999901;28;46388;-66
2023/10/30 12:26:33;;;;;;;14.63;4.87;;;14.90;41.90;;;;;;4997311;28;46613;-67
2023/10/30 12:29:00;;;;;;;9.23;4.53;;;14.80;41.50;;;;;;4993108;28;46513;-66
2023/10/30 12:31:26;;;;;;;8.80;4.20;;;14.70;41.60;;;;;;4995218;28;46511;-66
2023/10/30 12:34:11;;;;;;;10.20;4.57;;;14.70;41.80;;;;;;4991607;28;46935;-66
2023/10/30 12:36:38;;;;;;;7.30;4.47;;;14.80;41.90;;;;;;4992998;28;47523;-66
2023/10/30 12:39:10;;;;;;;7.83;4.00;;;14.80;42.80;;;;;;4994076;28;46409;-66
2023/10/30 12:41:36;;;;;;;6.43;4.30;;;;;;;;;;5000037;28;46137;-66
2023/10/30 12:44:02;;;;;;;8.53;4.40;;;;;;;;;;5001613;28;46493;-66
2023/10/30 12:46:28;;;;;;;11.43;4.20;;;14.70;41.70;;;;;;4994679;28;47471;-66
2023/10/30 12:48:54;;;;;;;7.87;4.70;;;;;;;;;;4991935;28;46871;-66
2023/10/30 12:51:19;;;;;;;12.83;5.10;;;14.70;41.70;;;;;;4998971;28;46360;-66
2023/10/30 12:53:45;;;;;;;8.37;4.47;;;;;;;;;;5001497;28;46321;-65
2023/10/30 12:56:11;;;;;;;10.97;4.30;;;;;;;;;;4987313;28;46696;-67
2023/10/30 12:58:37;;;;;;;9.10;4.80;;;;;;;;;;5000756;28;46396;-67
2023/10/30 13:01:04;;;;;;;8.13;5.10;;;14.60;41.60;;;;;;4993170;28;46553;-67